createdAt,value
2023-03-12T00:00:16.733Z,77.50
2023-03-12T00:02:46.057Z,77.50
2023-03-12T00:05:14.215Z,77.10
2023-03-12T00:07:42.187Z,76.60
2023-03-12T00:10:11.626Z,76.50
2023-03-12T00:12:39.588Z,76.00
2023-03-12T00:15:09.290Z,74.80
2023-03-12T00:17:37.785Z,74.90
2023-03-12T00:20:07.869Z,75.40
2023-03-12T00:22:35.964Z,74.90
2023-03-12T00:25:05.587Z,74.90
2023-03-12T00:27:33.700Z,75.00
2023-03-12T00:30:01.904Z,75.40
2023-03-12T00:32:29.979Z,75.50
2023-03-12T00:34:57.961Z,75.70
2023-03-12T00:37:27.408Z,75.40
2023-03-12T00:39:56.130Z,75.00
2023-03-12T00:42:24.178Z,74.80
2023-03-12T00:44:52.142Z,74.00
2023-03-12T00:47:20.201Z,74.30
2023-03-12T00:49:48.218Z,73.70
2023-03-12T00:52:16.221Z,73.60
2023-03-12T00:54:45.579Z,73.60
2023-03-12T00:57:13.592Z,73.60
2023-03-12T00:59:42.200Z,73.30
2023-03-12T01:02:10.649Z,72.80
2023-03-12T01:04:38.759Z,72.60
2023-03-12T01:07:06.917Z,72.10
2023-03-12T01:09:34.974Z,72.30
2023-03-12T01:12:04.442Z,72.60
2023-03-12T01:14:32.612Z,72.30
2023-03-12T01:17:00.649Z,71.80
2023-03-12T01:19:28.680Z,71.80
2023-03-12T01:21:56.691Z,71.40
2023-03-12T01:24:24.625Z,72.10
2023-03-12T01:26:52.690Z,72.30
2023-03-12T01:29:21.972Z,71.20
2023-03-12T01:31:50.039Z,70.50
2023-03-12T01:34:17.998Z,70.40
2023-03-12T01:36:47.761Z,70.40
2023-03-12T01:39:16.152Z,70.30
2023-03-12T01:41:44.152Z,70.10
2023-03-12T01:44:14.867Z,70.10
2023-03-12T01:46:45.950Z,70.40
2023-03-12T01:49:25.153Z,70.10
2023-03-12T01:51:58.435Z,69.90
2023-03-12T01:54:33.859Z,70.10
2023-03-12T01:57:03.747Z,70.10
2023-03-12T01:59:34.704Z,70.00
2023-03-12T02:02:04.845Z,69.50
2023-03-12T02:04:34.374Z,69.60
2023-03-12T02:07:06.163Z,69.90
2023-03-12T02:09:36.036Z,69.50
2023-03-12T02:12:04.377Z,68.80
2023-03-12T02:14:32.769Z,68.90
2023-03-12T02:17:00.984Z,68.90
2023-03-12T02:19:39.591Z,68.30
2023-03-12T02:22:07.688Z,68.40
2023-03-12T02:24:41.768Z,68.20
2023-03-12T02:27:13.243Z,68.50
2023-03-12T02:29:45.746Z,68.30
2023-03-12T02:32:21.166Z,67.90
2023-03-12T02:34:50.718Z,68.40
2023-03-12T02:37:19.049Z,68.10
2023-03-12T02:39:54.522Z,68.50
2023-03-12T02:42:25.059Z,68.80
2023-03-12T02:44:53.050Z,68.30
2023-03-12T02:47:21.126Z,67.90
2023-03-12T02:49:49.133Z,68.00
2023-03-12T02:52:17.159Z,68.30
2023-03-12T02:54:45.269Z,67.80
2023-03-12T02:57:13.476Z,67.20
2023-03-12T02:59:42.906Z,67.70
2023-03-12T03:02:12.730Z,68.50
2023-03-12T03:04:41.055Z,68.40
2023-03-12T03:07:09.134Z,69.10
2023-03-12T03:09:37.153Z,69.50
2023-03-12T03:12:06.045Z,69.50
2023-03-12T03:14:35.858Z,69.40
2023-03-12T03:17:06.159Z,68.80
2023-03-12T03:19:34.169Z,69.00
2023-03-12T03:22:02.155Z,69.00
2023-03-12T03:24:31.572Z,68.90
2023-03-12T03:26:59.590Z,69.30
2023-03-12T03:29:27.642Z,68.90
2023-03-12T03:31:55.646Z,68.80
2023-03-12T03:34:25.031Z,68.70
2023-03-12T03:36:53.800Z,68.60
2023-03-12T03:39:22.427Z,68.60
2023-03-12T03:41:52.292Z,67.70
2023-03-12T03:44:23.995Z,67.50
2023-03-12T03:46:53.431Z,67.70
2023-03-12T03:49:21.424Z,68.00
2023-03-12T03:51:51.732Z,68.10
2023-03-12T03:54:26.096Z,67.40
2023-03-12T03:56:54.342Z,67.50
2023-03-12T03:59:22.753Z,67.50
2023-03-12T04:01:50.826Z,67.40
2023-03-12T04:04:18.885Z,67.10
2023-03-12T04:06:46.879Z,67.20
2023-03-12T04:09:17.169Z,67.00
2023-03-12T04:11:45.324Z,67.30
2023-03-12T04:14:14.814Z,67.10
2023-03-12T04:16:45.626Z,67.30
2023-03-12T04:19:13.615Z,67.50
2023-03-12T04:21:41.747Z,67.70
2023-03-12T04:24:16.749Z,67.40
2023-03-12T04:26:45.428Z,67.40
2023-03-12T04:29:14.809Z,67.30
2023-03-12T04:31:43.246Z,67.20
2023-03-12T04:34:14.259Z,66.70
2023-03-12T04:36:42.920Z,67.20
2023-03-12T04:39:10.939Z,67.30
2023-03-12T04:41:40.473Z,67.10
2023-03-12T04:44:12.921Z,66.70
2023-03-12T04:46:41.767Z,66.60
2023-03-12T04:49:12.075Z,67.00
2023-03-12T04:51:41.750Z,66.80
2023-03-12T04:54:09.917Z,66.90
2023-03-12T04:56:41.126Z,66.90
2023-03-12T04:59:09.152Z,67.00
2023-03-12T05:01:38.548Z,66.90
2023-03-12T05:04:12.925Z,66.50
2023-03-12T05:06:41.095Z,66.70
2023-03-12T05:09:09.195Z,66.90
2023-03-12T05:11:39.844Z,67.20
2023-03-12T05:14:10.525Z,67.20
2023-03-12T05:16:39.015Z,67.10
2023-03-12T05:19:07.663Z,67.20
2023-03-12T05:21:36.380Z,67.40
2023-03-12T05:24:04.471Z,67.20
2023-03-12T05:26:34.285Z,67.20
2023-03-12T05:29:13.643Z,67.70
2023-03-12T05:31:41.971Z,67.40
2023-03-12T05:34:13.030Z,67.80
2023-03-12T05:36:43.522Z,67.70
2023-03-12T05:39:12.746Z,67.90
2023-03-12T05:41:41.507Z,68.00
2023-03-12T05:44:18.122Z,68.10
2023-03-12T05:46:51.057Z,68.20
2023-03-12T05:49:19.254Z,68.40
2023-03-12T05:51:48.187Z,68.50
2023-03-12T05:54:16.809Z,68.80
2023-03-12T05:56:45.447Z,69.00
2023-03-12T05:59:13.447Z,69.30
2023-03-12T06:01:44.218Z,69.60
2023-03-12T06:04:12.952Z,70.20
2023-03-12T06:06:41.079Z,70.40
2023-03-12T06:09:09.181Z,71.00
2023-03-12T06:11:37.186Z,70.90
2023-03-12T06:14:05.759Z,71.00
2023-03-12T06:16:35.677Z,71.30
2023-03-12T06:19:06.595Z,71.40
2023-03-12T06:21:36.722Z,71.50
2023-03-12T06:24:07.723Z,71.80
2023-03-12T06:26:44.033Z,71.90
2023-03-12T06:29:12.092Z,72.00
2023-03-12T06:31:42.098Z,72.30
2023-03-12T06:34:11.518Z,72.50
2023-03-12T06:36:39.492Z,72.70
2023-03-12T06:39:08.957Z,73.10
2023-03-12T06:41:37.497Z,74.00
2023-03-12T06:44:06.260Z,74.40
2023-03-12T06:46:34.945Z,76.10
2023-03-12T06:49:03.835Z,76.20
2023-03-12T06:51:33.387Z,76.30
2023-03-12T06:54:02.550Z,76.40
2023-03-12T06:56:30.758Z,77.30
2023-03-12T06:58:58.892Z,77.70
2023-03-12T07:01:27.119Z,77.80
2023-03-12T07:03:55.095Z,78.60
2023-03-12T07:06:24.793Z,78.90
2023-03-12T07:08:54.108Z,79.50
2023-03-12T07:11:22.122Z,80.00
2023-03-12T07:13:50.158Z,80.60
2023-03-12T07:16:18.243Z,80.90
2023-03-12T07:18:46.226Z,80.70
2023-03-12T07:21:16.495Z,80.90
2023-03-12T07:23:44.484Z,80.90
2023-03-12T07:26:13.795Z,81.20
2023-03-12T07:28:41.832Z,81.20
2023-03-12T07:31:09.925Z,81.10
2023-03-12T07:33:38.346Z,81.40
2023-03-12T07:36:07.260Z,81.50
2023-03-12T07:38:35.355Z,81.60
2023-03-12T07:41:03.477Z,81.70
2023-03-12T07:43:33.087Z,81.90
2023-03-12T07:46:01.331Z,82.20
2023-03-12T07:48:29.366Z,82.70
2023-03-12T07:50:57.390Z,83.30
2023-03-12T07:53:25.354Z,83.50
2023-03-12T07:55:54.907Z,83.80
2023-03-12T07:58:23.235Z,84.10
2023-03-12T08:00:53.743Z,84.80
2023-03-12T08:03:22.002Z,85.30
2023-03-12T08:05:58.371Z,85.70
2023-03-12T08:08:26.523Z,85.80
2023-03-12T08:10:54.638Z,86.00
2023-03-12T08:13:23.950Z,85.90
2023-03-12T08:15:54.524Z,85.90
2023-03-12T08:18:24.677Z,85.70
2023-03-12T08:20:53.542Z,85.10
2023-03-12T08:23:22.162Z,84.90
2023-03-12T08:25:51.130Z,84.90
2023-03-12T08:28:20.305Z,85.00
2023-03-12T08:30:48.938Z,85.00
2023-03-12T08:33:18.850Z,85.00
2023-03-12T08:35:47.246Z,85.40
2023-03-12T08:38:15.267Z,85.80
2023-03-12T08:40:43.388Z,85.80
2023-03-12T08:43:11.756Z,86.00
2023-03-12T08:45:39.808Z,85.80
2023-03-12T08:48:09.045Z,85.70
2023-03-12T08:50:38.389Z,87.20
2023-03-12T08:53:07.270Z,87.90
2023-03-12T08:55:35.332Z,88.50
2023-03-12T08:58:03.368Z,88.80
2023-03-12T09:00:31.553Z,89.40
2023-03-12T09:02:59.543Z,89.80
2023-03-12T09:05:29.947Z,90.20
2023-03-12T09:07:59.301Z,91.00
2023-03-12T09:10:30.708Z,90.70
2023-03-12T09:12:58.993Z,91.20
2023-03-12T09:15:27.203Z,90.60
2023-03-12T09:17:55.732Z,91.00
2023-03-12T09:20:25.045Z,90.90
2023-03-12T09:22:53.051Z,90.00
2023-03-12T09:25:23.383Z,90.30
2023-03-12T09:27:51.564Z,89.90
2023-03-12T09:30:21.794Z,89.90
2023-03-12T09:32:49.969Z,90.50
2023-03-12T09:35:18.399Z,90.80
2023-03-12T09:37:49.905Z,90.60
2023-03-12T09:40:20.454Z,91.20
2023-03-12T09:42:54.810Z,91.20
2023-03-12T09:45:25.668Z,91.40
2023-03-12T09:47:55.491Z,91.90
2023-03-12T09:50:28.062Z,92.80
2023-03-12T09:53:01.191Z,93.50
2023-03-12T09:55:33.981Z,93.90
2023-03-12T09:58:03.315Z,94.80
2023-03-12T10:00:35.439Z,95.00
2023-03-12T10:03:20.369Z,94.90
2023-03-12T10:06:03.841Z,95.00
2023-03-12T10:08:45.222Z,94.90
2023-03-12T10:11:21.744Z,95.20
2023-03-12T10:14:05.282Z,95.70
2023-03-12T10:16:44.966Z,96.20
2023-03-12T10:19:28.828Z,96.10
2023-03-12T10:22:02.142Z,96.90
2023-03-12T10:24:50.293Z,97.50
2023-03-12T10:27:19.262Z,97.60
2023-03-12T10:29:51.841Z,97.00
2023-03-12T10:32:26.193Z,96.80
2023-03-12T10:34:57.168Z,97.90
2023-03-12T10:37:29.208Z,98.10
2023-03-12T10:39:57.358Z,97.30
2023-03-12T10:42:27.571Z,98.20
2023-03-12T10:45:01.127Z,98.40
2023-03-12T10:47:36.716Z,98.10
2023-03-12T10:50:15.492Z,98.90
2023-03-12T10:52:44.019Z,99.30
2023-03-12T10:55:17.525Z,99.30
2023-03-12T10:57:45.526Z,99.30
2023-03-12T11:00:21.308Z,99.40
2023-03-12T11:02:58.803Z,99.60
2023-03-12T11:05:29.540Z,99.60
2023-03-12T11:08:00.067Z,99.60
2023-03-12T11:10:38.429Z,99.60
2023-03-12T11:13:21.553Z,99.60
2023-03-12T11:15:52.743Z,99.60
2023-03-12T11:18:33.746Z,99.60
2023-03-12T11:21:20.134Z,99.60
2023-03-12T11:24:11.139Z,99.20
2023-03-12T11:26:51.029Z,99.30
2023-03-12T11:29:27.499Z,99.00
2023-03-12T11:32:07.692Z,98.90
2023-03-12T11:34:39.118Z,99.20
2023-03-12T11:37:14.250Z,99.50
2023-03-12T11:39:57.446Z,99.60
2023-03-12T11:42:40.228Z,99.60
2023-03-12T11:45:19.156Z,99.60
2023-03-12T11:48:00.424Z,99.60
2023-03-12T11:50:45.022Z,99.60
2023-03-12T11:53:39.828Z,99.60
2023-03-12T11:56:19.279Z,99.60
2023-03-12T11:59:03.179Z,99.60
2023-03-12T12:01:42.414Z,99.60
2023-03-12T12:04:48.101Z,99.60
2023-03-12T12:07:25.290Z,99.60
2023-03-12T12:09:59.066Z,99.60
2023-03-12T12:12:41.012Z,99.60
2023-03-12T12:15:20.646Z,99.60
2023-03-12T12:18:00.529Z,99.60
2023-03-12T12:20:40.359Z,99.60
2023-03-12T12:23:19.112Z,99.60
2023-03-12T12:26:06.629Z,99.60
2023-03-12T12:29:18.540Z,99.60
2023-03-12T12:31:54.591Z,99.60
2023-03-12T12:34:56.364Z,99.60
2023-03-12T12:37:38.752Z,99.60
2023-03-12T12:40:19.384Z,99.60
2023-03-12T12:43:15.600Z,99.60
2023-03-12T12:45:45.251Z,99.60
2023-03-12T12:48:18.714Z,99.60
2023-03-12T12:50:48.772Z,99.60
2023-03-12T12:53:26.431Z,99.60
2023-03-12T12:56:05.286Z,99.60
2023-03-12T12:58:57.566Z,99.60
2023-03-12T13:01:27.865Z,99.60
2023-03-12T13:04:01.310Z,99.60
2023-03-12T13:06:30.463Z,99.60
2023-03-12T13:09:16.145Z,99.60
2023-03-12T13:11:47.788Z,99.60
2023-03-12T13:14:40.484Z,99.60
2023-03-12T13:17:27.217Z,99.60
2023-03-12T13:20:01.978Z,99.60
2023-03-12T13:22:45.752Z,99.60
2023-03-12T13:25:31.984Z,99.60
2023-03-12T13:28:01.865Z,99.60
2023-03-12T13:30:50.374Z,99.60
2023-03-12T13:33:21.718Z,99.60
2023-03-12T13:36:11.771Z,99.60
2023-03-12T13:38:53.745Z,99.60
2023-03-12T13:41:35.219Z,99.60
2023-03-12T13:44:30.196Z,99.60
2023-03-12T13:47:01.654Z,99.60
2023-03-12T13:49:37.383Z,99.60
2023-03-12T13:52:20.819Z,99.60
2023-03-12T13:54:57.371Z,99.60
2023-03-12T13:57:32.896Z,99.60
2023-03-12T14:00:01.597Z,99.60
2023-03-12T14:02:39.339Z,99.60
2023-03-12T14:05:10.454Z,99.60
2023-03-12T14:07:54.900Z,99.60
2023-03-12T14:10:37.668Z,99.60
2023-03-12T14:13:18.687Z,99.60
2023-03-12T14:15:55.393Z,99.60
2023-03-12T14:18:26.611Z,99.60
2023-03-12T14:20:59.123Z,99.60
2023-03-12T14:23:31.056Z,99.60
2023-03-12T14:26:03.853Z,99.60
2023-03-12T14:28:41.244Z,99.60
2023-03-12T14:31:13.809Z,99.60
2023-03-12T14:33:52.048Z,99.60
2023-03-12T14:36:22.369Z,99.60
2023-03-12T14:38:51.459Z,99.60
2023-03-12T14:41:23.713Z,99.60
2023-03-12T14:43:55.188Z,99.60
2023-03-12T14:46:24.975Z,99.60
2023-03-12T14:48:54.849Z,99.20
2023-03-12T14:51:25.468Z,99.00
2023-03-12T14:53:54.538Z,98.80
2023-03-12T14:56:29.110Z,97.50
2023-03-12T14:59:03.760Z,97.80
2023-03-12T15:01:33.664Z,97.20
2023-03-12T15:04:04.103Z,96.40
2023-03-12T15:06:33.919Z,96.60
2023-03-12T15:09:04.896Z,95.70
2023-03-12T15:11:35.163Z,95.70
2023-03-12T15:14:07.095Z,96.00
2023-03-12T15:16:36.060Z,95.80
2023-03-12T15:19:05.006Z,95.50
2023-03-12T15:21:34.432Z,94.70
2023-03-12T15:24:03.705Z,94.50
2023-03-12T15:26:34.433Z,94.80
2023-03-12T15:29:08.034Z,94.70
2023-03-12T15:31:43.710Z,93.30
2023-03-12T15:34:14.303Z,92.50
2023-03-12T15:36:49.169Z,92.90
2023-03-12T15:39:26.999Z,92.30
2023-03-12T15:41:56.498Z,91.20
2023-03-12T15:44:28.134Z,91.00
2023-03-12T15:47:03.450Z,90.50
2023-03-12T15:49:35.184Z,90.10
2023-03-12T15:52:07.844Z,89.70
2023-03-12T15:54:40.445Z,89.90
2023-03-12T15:57:22.438Z,89.30
2023-03-12T16:00:24.137Z,89.30
2023-03-12T16:02:54.982Z,89.60
2023-03-12T16:05:26.381Z,89.60
2023-03-12T16:07:54.680Z,89.30
2023-03-12T16:10:25.341Z,89.00
2023-03-12T16:13:00.981Z,88.80
2023-03-12T16:15:31.126Z,89.10
2023-03-12T16:17:59.161Z,88.10
2023-03-12T16:20:27.614Z,87.80
2023-03-12T16:22:55.782Z,87.70
2023-03-12T16:25:24.854Z,88.00
2023-03-12T16:27:56.849Z,87.40
2023-03-12T16:30:28.354Z,87.80
2023-03-12T16:32:58.487Z,87.90
2023-03-12T16:35:28.190Z,87.70
2023-03-12T16:37:56.924Z,87.40
2023-03-12T16:40:33.230Z,87.90
2023-03-12T16:43:03.784Z,87.40
2023-03-12T16:45:34.702Z,86.80
2023-03-12T16:48:07.157Z,87.10
2023-03-12T16:50:35.256Z,86.90
2023-03-12T16:53:04.738Z,86.50
2023-03-12T16:55:40.948Z,86.40
2023-03-12T16:58:14.190Z,86.20
2023-03-12T17:00:42.501Z,85.40
2023-03-12T17:03:18.538Z,85.60
2023-03-12T17:05:47.066Z,85.00
2023-03-12T17:08:15.648Z,85.20
2023-03-12T17:10:43.954Z,85.30
2023-03-12T17:13:20.750Z,85.10
2023-03-12T17:15:48.909Z,85.40
2023-03-12T17:18:19.506Z,85.10
2023-03-12T17:20:49.098Z,84.60
2023-03-12T17:23:17.146Z,84.60
2023-03-12T17:25:45.917Z,84.60
2023-03-12T17:28:15.208Z,84.50
2023-03-12T17:30:43.571Z,84.40
2023-03-12T17:33:13.954Z,84.60
2023-03-12T17:35:44.183Z,84.90
2023-03-12T17:38:13.178Z,84.50
2023-03-12T17:40:41.876Z,84.60
2023-03-12T17:43:09.981Z,84.30
2023-03-12T17:45:38.053Z,84.50
2023-03-12T17:48:06.200Z,84.60
2023-03-12T17:50:34.319Z,84.80
2023-03-12T17:53:03.755Z,84.40
2023-03-12T17:55:31.751Z,84.60
2023-03-12T17:57:59.876Z,84.60
2023-03-12T18:00:27.805Z,84.50
2023-03-12T18:02:57.073Z,84.60
2023-03-12T18:05:25.610Z,84.50
2023-03-12T18:07:53.610Z,84.30
2023-03-12T18:10:23.325Z,84.50
2023-03-12T18:12:51.350Z,84.50
2023-03-12T18:15:19.377Z,84.50
2023-03-12T18:17:50.013Z,84.60
2023-03-12T18:20:28.704Z,84.70
2023-03-12T18:23:03.859Z,84.80
2023-03-12T18:25:33.152Z,84.90
2023-03-12T18:28:01.233Z,84.90
2023-03-12T18:30:29.311Z,85.20
2023-03-12T18:32:57.362Z,85.10
2023-03-12T18:35:28.811Z,85.20
2023-03-12T18:37:56.923Z,85.20
2023-03-12T18:40:25.402Z,85.20
2023-03-12T18:42:57.789Z,85.30
2023-03-12T18:45:25.989Z,85.60
2023-03-12T18:47:53.989Z,85.60
2023-03-12T18:50:22.005Z,85.60
2023-03-12T18:52:50.018Z,85.50
2023-03-12T18:55:18.302Z,85.70
2023-03-12T18:57:47.629Z,86.00
2023-03-12T19:00:19.062Z,86.20
2023-03-12T19:02:48.580Z,86.20
2023-03-12T19:05:17.132Z,86.20
2023-03-12T19:07:45.551Z,86.00
2023-03-12T19:10:14.509Z,86.10
2023-03-12T19:12:52.170Z,85.80
2023-03-12T19:15:23.914Z,85.80
2023-03-12T19:17:52.507Z,85.80
2023-03-12T19:20:20.865Z,85.70
2023-03-12T19:22:48.818Z,85.40
2023-03-12T19:25:16.935Z,85.60
2023-03-12T19:27:44.988Z,85.50
2023-03-12T19:30:14.620Z,85.50
2023-03-12T19:32:44.704Z,85.40
2023-03-12T19:35:15.143Z,85.30
2023-03-12T19:37:43.803Z,85.40
2023-03-12T19:40:13.244Z,85.50
2023-03-12T19:42:41.459Z,85.70
2023-03-12T19:45:10.645Z,85.60
2023-03-12T19:47:38.766Z,85.60
2023-03-12T19:50:09.429Z,85.60
2023-03-12T19:52:37.780Z,85.50
2023-03-12T19:55:06.399Z,85.60
2023-03-12T19:57:34.596Z,85.60
2023-03-12T20:00:06.274Z,85.60
2023-03-12T20:02:34.300Z,85.30
2023-03-12T20:05:02.595Z,85.20
2023-03-12T20:07:32.004Z,85.20
2023-03-12T20:10:00.314Z,85.10
2023-03-12T20:12:28.355Z,85.10
2023-03-12T20:14:56.376Z,85.00
2023-03-12T20:17:24.431Z,85.00
2023-03-12T20:19:52.474Z,85.00
2023-03-12T20:22:20.762Z,84.90
2023-03-12T20:24:50.150Z,85.10
2023-03-12T20:27:18.188Z,84.90
2023-03-12T20:29:47.120Z,85.00
2023-03-12T20:32:15.179Z,85.10
2023-03-12T20:34:43.363Z,85.00
2023-03-12T20:37:11.357Z,84.60
2023-03-12T20:39:39.351Z,84.40
2023-03-12T20:42:08.667Z,84.40
2023-03-12T20:44:36.642Z,84.50
2023-03-12T20:47:04.792Z,84.20
2023-03-12T20:49:33.102Z,84.10
2023-03-12T20:52:01.251Z,84.30
2023-03-12T20:54:29.290Z,84.10
2023-03-12T20:56:57.228Z,84.10
2023-03-12T20:59:26.660Z,84.10
2023-03-12T21:01:54.593Z,83.90
2023-03-12T21:04:22.496Z,83.90
2023-03-12T21:06:51.735Z,83.80
2023-03-12T21:09:22.195Z,83.90
2023-03-12T21:11:50.363Z,83.70
2023-03-12T21:14:18.356Z,83.70
2023-03-12T21:16:47.737Z,83.70
2023-03-12T21:19:15.780Z,83.80
2023-03-12T21:21:43.805Z,83.50
2023-03-12T21:24:11.854Z,83.60
2023-03-12T21:26:39.817Z,83.70
2023-03-12T21:29:07.823Z,83.80
2023-03-12T21:31:36.542Z,83.40
2023-03-12T21:34:07.453Z,83.40
2023-03-12T21:36:37.248Z,83.40
2023-03-12T21:39:05.202Z,83.60
2023-03-12T21:41:33.095Z,83.50
2023-03-12T21:44:02.956Z,83.70
2023-03-12T21:46:31.436Z,83.60
2023-03-12T21:49:00.499Z,83.60
2023-03-12T21:51:29.899Z,83.60
2023-03-12T21:53:59.028Z,83.80
2023-03-12T21:56:28.223Z,83.70
2023-03-12T21:58:57.186Z,84.00
2023-03-12T22:01:25.614Z,84.00
2023-03-12T22:03:53.909Z,84.10
2023-03-12T22:06:22.449Z,84.10
2023-03-12T22:08:52.378Z,84.30
2023-03-12T22:11:20.421Z,84.10
2023-03-12T22:13:48.428Z,84.10
2023-03-12T22:16:17.042Z,84.30
2023-03-12T22:18:46.846Z,84.30
2023-03-12T22:21:17.836Z,84.10
2023-03-12T22:23:48.022Z,84.30
2023-03-12T22:26:17.700Z,84.10
2023-03-12T22:28:50.761Z,84.10
2023-03-12T22:31:20.647Z,84.30
2023-03-12T22:33:48.700Z,84.10
2023-03-12T22:36:18.080Z,84.10
2023-03-12T22:38:47.606Z,84.10
2023-03-12T22:41:19.661Z,84.60
2023-03-12T22:43:48.733Z,84.40
2023-03-12T22:46:18.106Z,84.40
2023-03-12T22:48:47.099Z,84.10
2023-03-12T22:51:15.369Z,84.40
2023-03-12T22:53:43.329Z,84.30
2023-03-12T22:56:13.317Z,84.30
2023-03-12T22:58:42.863Z,84.10
2023-03-12T23:01:12.629Z,84.40
2023-03-12T23:03:42.285Z,84.30
2023-03-12T23:06:11.634Z,84.30
2023-03-12T23:08:39.839Z,84.20
2023-03-12T23:11:09.627Z,84.20
2023-03-12T23:13:40.120Z,84.20
2023-03-12T23:16:11.887Z,84.20
2023-03-12T23:18:40.057Z,84.10
2023-03-12T23:21:10.126Z,84.00
2023-03-12T23:23:39.484Z,84.10
2023-03-12T23:26:07.900Z,84.10
2023-03-12T23:28:35.866Z,84.10
2023-03-12T23:31:06.456Z,84.10
2023-03-12T23:33:36.418Z,84.20
2023-03-12T23:36:06.667Z,84.40
2023-03-12T23:38:37.489Z,84.50
2023-03-12T23:41:08.119Z,84.30
2023-03-12T23:43:36.837Z,84.60
2023-03-12T23:46:06.694Z,84.70
2023-03-12T23:48:38.340Z,84.60
2023-03-12T23:51:07.666Z,84.70
2023-03-12T23:53:36.700Z,84.60
2023-03-12T23:56:06.569Z,84.80
2023-03-12T23:58:35.033Z,84.80
